createdAt,value
2018-07-05T00:00:30.556Z,20.73
2018-07-05T00:03:09.996Z,20.68
2018-07-05T00:05:49.630Z,20.59
2018-07-05T00:08:29.271Z,20.49
2018-07-05T00:11:08.893Z,20.41
2018-07-05T00:13:48.503Z,20.40
2018-07-05T00:16:28.122Z,20.45
2018-07-05T00:19:07.687Z,20.51
2018-07-05T00:21:47.295Z,20.45
2018-07-05T00:24:26.827Z,20.39
2018-07-05T00:27:06.379Z,20.37
2018-07-05T00:29:46.025Z,20.30
2018-07-05T00:32:25.541Z,20.19
2018-07-05T00:35:05.158Z,20.08
2018-07-05T00:37:44.659Z,20.09
2018-07-05T00:40:24.351Z,20.02
2018-07-05T00:43:03.874Z,19.91
2018-07-05T00:45:43.481Z,19.89
2018-07-05T00:48:23.084Z,19.98
2018-07-05T00:51:02.833Z,19.95
2018-07-05T00:53:42.309Z,19.82
2018-07-05T00:56:21.859Z,19.71
2018-07-05T00:59:01.451Z,19.58
2018-07-05T01:01:41.117Z,19.53
2018-07-05T01:04:20.759Z,19.49
2018-07-05T01:07:00.419Z,19.47
2018-07-05T01:09:40.072Z,19.53
2018-07-05T01:12:19.675Z,19.47
2018-07-05T01:14:59.281Z,19.36
2018-07-05T01:17:38.683Z,19.25
2018-07-05T01:20:18.414Z,19.47
2018-07-05T01:22:57.919Z,19.08
2018-07-05T01:25:37.488Z,19.12
2018-07-05T01:28:17.281Z,19.49
2018-07-05T01:30:57.091Z,19.19
2018-07-05T01:33:36.663Z,19.14
2018-07-05T01:36:16.262Z,18.95
2018-07-05T01:38:55.942Z,18.76
2018-07-05T01:41:35.402Z,18.62
2018-07-05T01:44:14.964Z,18.55
2018-07-05T01:46:54.575Z,18.52
2018-07-05T01:49:34.224Z,18.66
2018-07-05T01:52:14.213Z,18.78
2018-07-05T01:54:54.322Z,18.90
2018-07-05T01:57:34.577Z,18.82
2018-07-05T02:00:14.340Z,18.81
2018-07-05T02:02:54.676Z,18.69
2018-07-05T02:05:34.955Z,18.56
2018-07-05T02:08:14.499Z,18.56
2018-07-05T02:10:54.149Z,18.56
2018-07-05T02:13:33.610Z,18.71
2018-07-05T02:16:13.288Z,18.71
2018-07-05T02:18:52.912Z,18.56
2018-07-05T02:21:32.537Z,18.45
2018-07-05T02:24:12.277Z,18.53
2018-07-05T02:26:52.097Z,18.64
2018-07-05T02:29:31.678Z,18.67
2018-07-05T02:32:11.534Z,18.69
2018-07-05T02:34:51.053Z,18.58
2018-07-05T02:37:35.752Z,18.50
2018-07-05T02:40:15.342Z,18.59
2018-07-05T02:42:54.907Z,18.60
2018-07-05T02:45:34.460Z,18.60
2018-07-05T02:48:14.013Z,18.64
2018-07-05T02:50:53.406Z,18.60
2018-07-05T02:53:33.085Z,18.54
2018-07-05T02:56:12.632Z,18.48
2018-07-05T02:58:52.369Z,18.23
2018-07-05T03:01:31.823Z,20.34
2018-07-05T03:04:11.519Z,20.78
2018-07-05T03:06:51.177Z,20.49
2018-07-05T03:09:30.856Z,21.06
2018-07-05T03:12:10.327Z,20.43
2018-07-05T03:14:49.984Z,20.72
2018-07-05T03:17:29.447Z,20.89
2018-07-05T03:20:09.461Z,20.83
2018-07-05T03:22:48.919Z,20.46
2018-07-05T03:25:28.641Z,19.75
2018-07-05T03:28:08.161Z,20.45
2018-07-05T03:30:47.645Z,20.33
2018-07-05T03:33:27.057Z,20.02
2018-07-05T03:36:06.603Z,20.39
2018-07-05T03:38:46.233Z,20.87
2018-07-05T03:41:26.164Z,21.11
2018-07-05T03:44:05.634Z,21.45
2018-07-05T03:46:45.196Z,21.56
2018-07-05T03:49:24.942Z,19.94
2018-07-05T03:52:04.469Z,19.40
2018-07-05T03:54:43.931Z,18.83
2018-07-05T03:57:23.476Z,18.35
2018-07-05T04:00:03.016Z,18.49
2018-07-05T04:02:42.696Z,18.48
2018-07-05T04:05:22.288Z,18.58
2018-07-05T04:08:01.696Z,18.58
2018-07-05T04:10:41.243Z,18.32
2018-07-05T04:13:20.747Z,18.50
2018-07-05T04:16:00.319Z,18.55
2018-07-05T04:22:22.249Z,18.54
2018-07-05T04:25:01.949Z,18.69
2018-07-05T04:27:41.545Z,18.67
2018-07-05T04:30:21.052Z,18.78
2018-07-05T04:33:00.719Z,18.81
2018-07-05T04:35:40.203Z,18.81
2018-07-05T04:38:19.816Z,18.97
2018-07-05T04:41:00.275Z,19.02
2018-07-05T04:43:39.979Z,19.15
2018-07-05T04:46:19.488Z,19.24
2018-07-05T04:48:59.160Z,19.34
2018-07-05T04:51:39.008Z,19.46
2018-07-05T04:54:18.733Z,19.44
2018-07-05T04:56:58.128Z,19.58
2018-07-05T04:59:37.630Z,19.75
2018-07-05T05:02:17.434Z,19.75
2018-07-05T05:04:56.916Z,19.81
2018-07-05T05:07:36.471Z,19.82
2018-07-05T05:10:16.095Z,19.87
2018-07-05T05:12:55.591Z,20.07
2018-07-05T05:15:35.498Z,20.14
2018-07-05T05:18:15.124Z,20.24
2018-07-05T05:20:54.751Z,20.35
2018-07-05T05:23:34.275Z,20.35
2018-07-05T05:26:13.843Z,20.44
2018-07-05T05:28:53.538Z,20.58
2018-07-05T05:31:33.023Z,20.65
2018-07-05T05:34:12.545Z,20.61
2018-07-05T05:36:52.170Z,20.77
2018-07-05T05:39:31.784Z,20.81
2018-07-05T05:42:11.340Z,20.78
2018-07-05T05:44:50.959Z,20.86
2018-07-05T05:47:30.607Z,21.12
2018-07-05T05:50:10.046Z,21.06
2018-07-05T05:52:49.550Z,21.26
2018-07-05T05:55:29.224Z,21.27
2018-07-05T05:58:08.678Z,21.62
2018-07-05T06:00:48.176Z,21.38
2018-07-05T06:03:27.824Z,21.45
2018-07-05T06:06:07.307Z,21.29
2018-07-05T06:08:46.960Z,21.56
2018-07-05T06:11:26.550Z,21.53
2018-07-05T06:14:06.206Z,21.61
2018-07-05T06:16:45.865Z,21.63
2018-07-05T06:19:25.271Z,21.73
2018-07-05T06:22:04.782Z,21.92
2018-07-05T06:24:44.479Z,22.01
2018-07-05T06:27:24.156Z,22.13
2018-07-05T06:30:03.686Z,22.16
2018-07-05T06:32:43.176Z,22.15
2018-07-05T06:35:22.671Z,22.29
2018-07-05T06:38:02.340Z,22.45
2018-07-05T06:40:42.017Z,22.53
2018-07-05T06:43:21.524Z,22.77
2018-07-05T06:46:01.123Z,23.00
2018-07-05T06:48:40.648Z,22.84
2018-07-05T06:51:20.267Z,23.00
2018-07-05T06:53:59.903Z,23.04
2018-07-05T06:56:39.437Z,23.11
2018-07-05T06:59:19.059Z,22.92
2018-07-05T07:01:58.739Z,23.10
2018-07-05T07:04:38.435Z,23.44
2018-07-05T07:07:18.119Z,23.74
2018-07-05T07:09:57.728Z,23.76
2018-07-05T07:12:37.227Z,23.60
2018-07-05T07:15:16.841Z,23.71
2018-07-05T07:17:56.477Z,23.39
2018-07-05T07:20:36.267Z,23.97
2018-07-05T07:23:15.696Z,23.96
2018-07-05T07:25:55.290Z,24.18
2018-07-05T07:28:34.968Z,24.19
2018-07-05T07:31:14.521Z,23.92
2018-07-05T07:33:54.124Z,24.39
2018-07-05T07:36:33.723Z,24.59
2018-07-05T07:39:13.228Z,24.53
2018-07-05T07:41:45.358Z,24.63
2018-07-05T07:44:12.595Z,24.93
2018-07-05T07:46:39.839Z,24.92
2018-07-05T07:49:07.488Z,25.05
2018-07-05T07:51:34.714Z,25.33
2018-07-05T07:54:01.956Z,25.35
2018-07-05T07:56:29.232Z,25.73
2018-07-05T07:58:56.454Z,25.73
2018-07-05T08:01:23.692Z,25.91
2018-07-05T08:03:50.938Z,25.77
2018-07-05T08:06:18.185Z,25.80
2018-07-05T08:08:45.539Z,25.66
2018-07-05T08:11:12.757Z,25.63
2018-07-05T08:13:39.971Z,26.10
2018-07-05T08:16:07.235Z,26.23
2018-07-05T08:18:34.468Z,26.25
2018-07-05T08:21:01.738Z,26.44
2018-07-05T08:23:28.971Z,26.58
2018-07-05T08:25:56.210Z,26.48
2018-07-05T08:28:23.459Z,26.47
2018-07-05T08:30:50.671Z,26.61
2018-07-05T08:33:17.929Z,26.69
2018-07-05T08:35:45.148Z,26.89
2018-07-05T08:38:12.397Z,27.16
2018-07-05T08:40:42.663Z,27.23
2018-07-05T08:43:09.876Z,27.40
2018-07-05T08:45:37.151Z,27.71
2018-07-05T08:48:04.380Z,27.52
2018-07-05T08:50:31.678Z,27.48
2018-07-05T08:52:58.940Z,27.82
2018-07-05T08:55:26.150Z,27.96
2018-07-05T08:57:53.406Z,27.86
2018-07-05T09:00:20.628Z,28.11
2018-07-05T09:02:47.907Z,28.13
2018-07-05T09:05:15.202Z,28.08
2018-07-05T09:07:42.832Z,28.04
2018-07-05T09:10:10.067Z,28.28
2018-07-05T09:12:37.271Z,28.32
2018-07-05T09:15:04.512Z,28.70
2018-07-05T09:17:31.791Z,29.25
2018-07-05T09:19:59.010Z,29.33
2018-07-05T09:22:26.273Z,29.33
2018-07-05T09:24:54.304Z,29.39
2018-07-05T09:27:21.600Z,29.29
2018-07-05T09:29:48.842Z,28.81
2018-07-05T09:32:16.080Z,29.11
2018-07-05T09:34:43.310Z,29.21
2018-07-05T09:37:10.598Z,29.40
2018-07-05T09:39:37.817Z,29.57
2018-07-05T09:42:05.046Z,30.22
2018-07-05T09:44:32.326Z,30.05
2018-07-05T09:46:59.608Z,29.94
2018-07-05T09:49:26.812Z,30.17
2018-07-05T09:51:54.046Z,30.37
2018-07-05T09:54:21.276Z,30.32
2018-07-05T09:56:48.558Z,30.17
2018-07-05T09:59:17.751Z,29.99
2018-07-05T10:01:44.991Z,31.15
2018-07-05T10:04:12.219Z,30.70
2018-07-05T10:06:39.461Z,31.16
2018-07-05T10:09:06.896Z,31.01
2018-07-05T10:11:34.795Z,31.23
2018-07-05T10:14:02.009Z,31.14
2018-07-05T10:16:29.347Z,31.09
2018-07-05T10:18:56.615Z,31.26
2018-07-05T10:21:23.843Z,30.84
2018-07-05T10:23:51.071Z,31.74
2018-07-05T10:26:18.715Z,31.18
2018-07-05T10:28:58.167Z,31.19
2018-07-05T10:31:37.711Z,31.35
2018-07-05T10:34:04.926Z,31.34
2018-07-05T10:36:32.153Z,31.24
2018-07-05T10:38:59.406Z,31.90
2018-07-05T10:41:39.079Z,31.11
2018-07-05T10:44:18.731Z,32.17
2018-07-05T10:46:58.213Z,32.06
2018-07-05T10:49:37.768Z,32.03
2018-07-05T10:52:17.291Z,31.51
2018-07-05T10:54:56.964Z,30.47
2018-07-05T10:57:36.517Z,31.38
2018-07-05T11:00:16.066Z,32.77
2018-07-05T11:02:55.540Z,32.20
2018-07-05T11:05:35.327Z,32.17
2018-07-05T11:08:15.023Z,32.34
2018-07-05T11:10:54.622Z,31.45
2018-07-05T11:13:34.100Z,32.43
2018-07-05T11:16:13.540Z,32.72
2018-07-05T11:18:52.987Z,33.06
2018-07-05T11:21:32.639Z,33.35
2018-07-05T11:24:12.072Z,33.19
2018-07-05T11:26:51.559Z,32.49
2018-07-05T11:29:31.087Z,33.88
2018-07-05T11:32:10.740Z,33.96
2018-07-05T11:34:50.367Z,34.09
2018-07-05T11:37:29.908Z,33.31
2018-07-05T11:40:09.536Z,33.00
2018-07-05T11:42:48.928Z,33.82
2018-07-05T11:45:28.544Z,33.77
2018-07-05T11:48:08.211Z,33.95
2018-07-05T11:50:47.833Z,31.84
2018-07-05T11:53:27.244Z,33.47
2018-07-05T11:56:06.928Z,32.90
2018-07-05T11:58:46.515Z,33.06
2018-07-05T12:01:26.053Z,34.24
2018-07-05T12:04:05.704Z,34.40
2018-07-05T12:06:45.208Z,34.49
2018-07-05T12:09:25.809Z,35.29
2018-07-05T12:12:05.267Z,35.80
2018-07-05T12:14:44.875Z,34.72
2018-07-05T12:17:24.811Z,34.22
2018-07-05T12:20:04.330Z,34.77
2018-07-05T12:22:44.018Z,35.66
2018-07-05T12:25:23.738Z,35.13
2018-07-05T12:28:03.287Z,35.02
2018-07-05T12:30:42.796Z,34.75
2018-07-05T12:33:22.449Z,33.33
2018-07-05T12:36:01.993Z,32.15
2018-07-05T12:38:41.632Z,34.33
2018-07-05T12:41:21.288Z,35.64
2018-07-05T12:44:00.647Z,34.54
2018-07-05T12:46:40.176Z,34.31
2018-07-05T12:49:19.599Z,36.32
2018-07-05T12:51:59.211Z,36.44
2018-07-05T12:54:38.770Z,36.32
2018-07-05T12:57:18.412Z,36.74
2018-07-05T12:59:58.039Z,36.70
2018-07-05T13:02:37.591Z,36.39
2018-07-05T13:05:17.242Z,35.90
2018-07-05T13:07:56.743Z,35.69
2018-07-05T13:10:36.302Z,35.70
2018-07-05T13:13:15.863Z,35.27
2018-07-05T13:15:55.300Z,34.72
2018-07-05T13:18:34.968Z,33.95
2018-07-05T13:21:14.537Z,33.54
2018-07-05T13:23:54.183Z,33.73
2018-07-05T13:26:33.856Z,33.92
2018-07-05T13:29:13.511Z,33.97
2018-07-05T13:31:53.097Z,34.05
2018-07-05T13:34:32.566Z,35.45
2018-07-05T13:37:12.213Z,34.45
2018-07-05T13:39:51.865Z,34.99
2018-07-05T13:42:31.291Z,34.92
2018-07-05T13:45:10.707Z,35.66
2018-07-05T13:47:50.308Z,35.49
2018-07-05T13:50:29.770Z,37.27
2018-07-05T13:53:09.235Z,36.49
2018-07-05T13:55:48.703Z,36.94
2018-07-05T13:59:30.924Z,36.78
2018-07-05T14:02:10.444Z,35.43
2018-07-05T14:04:49.908Z,35.69
2018-07-05T14:07:29.504Z,35.65
2018-07-05T14:10:09.104Z,35.94
2018-07-05T14:12:48.773Z,35.45
2018-07-05T14:15:28.472Z,36.30
2018-07-05T14:18:07.951Z,35.61
2018-07-05T14:20:47.549Z,36.87
2018-07-05T14:23:27.084Z,36.17
2018-07-05T14:26:06.789Z,36.96
2018-07-05T14:28:46.427Z,36.56
2018-07-05T14:31:26.130Z,37.56
2018-07-05T14:34:05.740Z,38.19
2018-07-05T14:36:45.279Z,37.14
2018-07-05T14:39:24.915Z,37.53
2018-07-05T14:42:04.502Z,36.46
2018-07-05T14:44:44.086Z,36.64
2018-07-05T14:47:23.707Z,36.16
2018-07-05T14:50:03.112Z,34.68
2018-07-05T14:52:42.688Z,36.19
2018-07-05T14:55:22.167Z,36.00
2018-07-05T14:58:01.641Z,35.50
2018-07-05T15:00:41.223Z,35.18
2018-07-05T15:03:20.927Z,34.66
2018-07-05T15:06:00.527Z,34.10
2018-07-05T15:08:40.097Z,33.60
2018-07-05T15:11:19.631Z,32.39
2018-07-05T15:13:59.261Z,32.27
2018-07-05T15:16:38.887Z,33.22
2018-07-05T15:19:18.450Z,33.86
2018-07-05T15:21:58.111Z,34.23
2018-07-05T15:24:37.662Z,33.95
2018-07-05T15:27:17.250Z,33.54
2018-07-05T15:29:56.878Z,33.96
2018-07-05T15:32:36.535Z,35.03
2018-07-05T15:35:16.190Z,34.12
2018-07-05T15:37:55.773Z,34.94
2018-07-05T15:40:35.538Z,34.02
2018-07-05T15:43:15.058Z,35.93
2018-07-05T15:49:36.700Z,37.50
2018-07-05T15:52:16.239Z,35.64
2018-07-05T15:54:56.244Z,37.38
2018-07-05T15:57:35.840Z,37.38
2018-07-05T16:00:18.380Z,36.37
2018-07-05T16:02:58.078Z,34.88
2018-07-05T16:05:37.732Z,34.55
2018-07-05T16:08:17.258Z,34.58
2018-07-05T16:10:56.852Z,34.68
2018-07-05T16:13:36.336Z,34.15
2018-07-05T16:16:16.045Z,34.02
2018-07-05T16:18:56.801Z,33.45
2018-07-05T16:21:36.434Z,34.05
2018-07-05T16:24:16.046Z,34.36
2018-07-05T16:26:55.787Z,34.43
2018-07-05T16:29:35.364Z,34.29
2018-07-05T16:32:14.889Z,33.81
2018-07-05T16:34:54.632Z,32.42
2018-07-05T16:37:34.336Z,32.33
2018-07-05T16:40:13.789Z,30.79
2018-07-05T16:42:53.475Z,31.44
2018-07-05T16:45:33.131Z,31.30
2018-07-05T16:48:13.080Z,30.46
2018-07-05T16:50:52.765Z,30.71
2018-07-05T16:53:32.292Z,30.84
2018-07-05T16:56:12.000Z,30.61
2018-07-05T16:58:51.606Z,30.95
2018-07-05T17:01:31.079Z,30.61
2018-07-05T17:04:10.622Z,31.05
2018-07-05T17:06:50.201Z,31.34
2018-07-05T17:09:29.509Z,31.28
2018-07-05T17:12:09.209Z,30.71
2018-07-05T17:14:48.836Z,30.70
2018-07-05T17:17:28.314Z,30.40
2018-07-05T17:20:07.972Z,30.40
2018-07-05T17:22:47.367Z,30.15
2018-07-05T17:25:26.902Z,30.07
2018-07-05T17:28:06.512Z,29.66
2018-07-05T17:30:46.211Z,29.63
2018-07-05T17:33:25.867Z,29.54
2018-07-05T17:36:05.844Z,29.57
2018-07-05T17:38:45.292Z,29.50
2018-07-05T17:41:24.847Z,29.54
2018-07-05T17:44:04.368Z,29.46
2018-07-05T17:46:43.982Z,29.52
2018-07-05T17:49:23.562Z,29.19
2018-07-05T17:52:03.658Z,29.37
2018-07-05T17:54:43.150Z,29.13
2018-07-05T17:57:22.584Z,29.04
2018-07-05T18:00:03.555Z,29.03
2018-07-05T18:02:43.444Z,29.03
2018-07-05T18:05:23.211Z,28.76
2018-07-05T18:08:02.888Z,27.33
2018-07-05T18:10:42.251Z,26.78
2018-07-05T18:13:21.998Z,26.37
2018-07-05T18:16:01.571Z,26.19
2018-07-05T18:18:41.098Z,25.97
2018-07-05T18:21:20.504Z,25.96
2018-07-05T18:24:00.158Z,25.61
2018-07-05T18:26:39.786Z,25.49
2018-07-05T18:29:19.503Z,25.29
2018-07-05T18:31:59.011Z,25.19
2018-07-05T18:34:38.830Z,25.09
2018-07-05T18:37:18.460Z,24.86
2018-07-05T18:39:58.332Z,24.68
2018-07-05T18:42:37.882Z,24.68
2018-07-05T18:45:17.643Z,24.50
2018-07-05T18:47:57.231Z,24.52
2018-07-05T18:50:36.776Z,24.48
2018-07-05T18:53:16.331Z,24.25
2018-07-05T18:55:56.367Z,24.18
2018-07-05T18:58:35.964Z,23.85
2018-07-05T19:01:16.102Z,23.72
2018-07-05T19:03:56.039Z,23.78
2018-07-05T19:06:35.647Z,23.68
2018-07-05T19:09:15.292Z,23.44
2018-07-05T19:11:54.848Z,23.37
2018-07-05T19:14:34.505Z,23.35
2018-07-05T19:17:14.016Z,23.26
2018-07-05T19:19:54.293Z,23.26
2018-07-05T19:22:33.973Z,23.06
2018-07-05T19:25:13.890Z,23.03
2018-07-05T19:27:53.380Z,22.80
2018-07-05T19:30:32.866Z,22.95
2018-07-05T19:33:12.448Z,22.87
2018-07-05T19:35:52.236Z,22.68
2018-07-05T19:38:32.088Z,22.78
2018-07-05T19:41:11.587Z,22.57
2018-07-05T19:43:51.269Z,22.57
2018-07-05T19:46:31.680Z,22.39
2018-07-05T19:49:11.322Z,22.37
2018-07-05T19:51:50.741Z,22.39
2018-07-05T19:54:30.129Z,22.37
2018-07-05T19:57:09.744Z,22.11
2018-07-05T19:59:49.211Z,22.16
2018-07-05T20:02:28.890Z,22.11
2018-07-05T20:05:08.436Z,22.11
2018-07-05T20:07:48.167Z,22.04
2018-07-05T20:10:27.784Z,22.17
2018-07-05T20:13:07.525Z,22.02
2018-07-05T20:15:47.264Z,21.98
2018-07-05T20:18:26.608Z,22.01
2018-07-05T20:21:06.489Z,22.00
2018-07-05T20:23:45.863Z,21.99
2018-07-05T20:26:25.458Z,21.95
2018-07-05T20:29:05.012Z,21.94
2018-07-05T20:31:44.857Z,21.92
2018-07-05T20:34:24.427Z,21.96
2018-07-05T20:37:04.094Z,21.88
2018-07-05T20:39:43.553Z,21.90
2018-07-05T20:42:23.177Z,21.93
2018-07-05T20:45:02.764Z,21.93
2018-07-05T20:47:42.254Z,21.83
2018-07-05T20:50:21.824Z,21.74
2018-07-05T20:53:01.480Z,21.70
2018-07-05T20:55:41.387Z,21.66
2018-07-05T20:58:20.887Z,21.57
2018-07-05T21:01:00.319Z,21.53
2018-07-05T21:03:39.896Z,21.57
2018-07-05T21:06:19.309Z,21.51
2018-07-05T21:08:59.023Z,21.39
2018-07-05T21:11:38.555Z,21.44
2018-07-05T21:14:18.040Z,21.47
2018-07-05T21:16:57.596Z,21.48
2018-07-05T21:19:37.216Z,21.55
2018-07-05T21:22:16.739Z,21.49
2018-07-05T21:24:56.509Z,21.45
2018-07-05T21:27:36.052Z,21.55
2018-07-05T21:30:15.871Z,21.47
2018-07-05T21:32:55.342Z,21.49
2018-07-05T21:35:35.205Z,21.40
2018-07-05T21:38:14.737Z,21.42
2018-07-05T21:40:54.192Z,21.29
2018-07-05T21:43:33.763Z,21.22
2018-07-05T21:46:13.485Z,21.32
2018-07-05T21:48:53.092Z,21.29
2018-07-05T21:51:33.014Z,21.27
2018-07-05T21:54:12.528Z,21.36
2018-07-05T21:56:52.217Z,21.36
2018-07-05T21:59:31.786Z,21.39
2018-07-05T22:02:11.496Z,21.27
2018-07-05T22:04:50.975Z,21.40
2018-07-05T22:07:30.620Z,21.51
2018-07-05T22:10:10.315Z,21.42
2018-07-05T22:12:49.989Z,21.31
2018-07-05T22:15:29.479Z,21.36
2018-07-05T22:18:14.380Z,21.18
2018-07-05T22:20:59.295Z,21.11
2018-07-05T22:23:44.111Z,21.01
2018-07-05T22:26:28.897Z,20.98
2018-07-05T22:29:13.752Z,21.02
2018-07-05T22:31:56.375Z,20.93
2018-07-05T22:34:36.104Z,21.02
2018-07-05T22:37:15.831Z,20.96
2018-07-05T22:39:55.800Z,20.83
2018-07-05T22:42:35.837Z,20.73
2018-07-05T22:45:15.743Z,20.72
2018-07-05T22:47:55.243Z,20.77
2018-07-05T22:50:34.939Z,20.76
2018-07-05T22:53:14.555Z,20.66
2018-07-05T22:55:54.623Z,20.62
2018-07-05T22:58:34.700Z,20.57
2018-07-05T23:01:14.501Z,20.59
2018-07-05T23:03:55.439Z,20.61
2018-07-05T23:06:35.061Z,20.61
2018-07-05T23:09:14.920Z,20.52
2018-07-05T23:11:54.755Z,20.62
2018-07-05T23:14:34.428Z,20.49
2018-07-05T23:17:14.071Z,20.53
2018-07-05T23:19:53.550Z,20.45
2018-07-05T23:22:33.093Z,20.47
2018-07-05T23:25:12.729Z,20.52
2018-07-05T23:27:52.302Z,20.36
2018-07-05T23:30:31.856Z,20.33
2018-07-05T23:33:11.496Z,20.21
2018-07-05T23:35:51.019Z,20.36
2018-07-05T23:38:30.620Z,20.32
2018-07-05T23:41:10.134Z,20.22
2018-07-05T23:43:50.735Z,20.27
2018-07-05T23:46:30.251Z,20.31
2018-07-05T23:49:09.766Z,20.35
2018-07-05T23:51:49.355Z,20.32
2018-07-05T23:54:28.809Z,20.34
2018-07-05T23:57:08.277Z,20.30
2018-07-05T23:59:47.922Z,20.30
